Time;durP1;ratioP1;P1;durP2;ratioP2;P2;SDS_P1;SDS_P2;PMS_P1;PMS_P2;Temp;Humidity;BMP_temperature;BMP_pressure;BME280_temperature;BME280_humidity;BME280_pressure;Samples;Min_cycle;Max_cycle;Signal;HPM_P1;HPM_P2
2023/05/25 08:36:28;;;;;;;9.55;5.28;;;;;;;-143.21;64.62;71830.25;4986697;28;20674;-85
2023/05/25 08:39:06;;;;;;;10.15;5.53;;;;;;;-143.21;67.62;71854.06;4993955;28;20698;-84
2023/05/25 08:41:35;;;;;;;11.40;5.93;;;;;;;-143.21;69.13;71875.88;4980028;28;20279;-83
2023/05/25 08:44:06;;;;;;;9.05;5.97;;;;;;;-143.21;69.51;71867.94;4974797;28;20261;-83
2023/05/25 08:46:33;;;;;;;6.65;5.53;;;;;;;-143.21;69.71;71875.88;4976132;28;20621;-84
2023/05/25 08:49:05;;;;;;;10.60;6.07;;;;;;;-143.21;70.29;71871.91;4974443;28;20203;-82
2023/05/25 08:51:37;;;;;;;10.00;6.60;;;;;;;-143.21;70.33;71883.81;4982028;28;20298;-82
2023/05/25 08:54:07;;;;;;;13.93;7.10;;;;;;;-143.21;70.23;71879.84;4980532;28;20639;-83
2023/05/25 08:56:39;;;;;;;9.55;5.63;;;;;;;-143.21;70.38;71885.78;4992533;28;20655;-84
2023/05/25 08:59:16;;;;;;;7.03;5.72;;;;;;;-143.21;70.27;71895.69;4993238;28;20222;-83
2023/05/25 09:01:46;;;;;;;6.55;5.20;;;;;;;-143.21;68.70;71895.69;4991016;28;20239;-84
2023/05/25 09:04:14;;;;;;;7.50;5.13;;;;;;;-143.21;68.74;71905.63;4992091;28;20211;-84
2023/05/25 09:06:44;;;;;;;8.93;5.80;;;;;;;-143.21;69.50;71919.50;4992806;28;20219;-84
2023/05/25 09:09:12;;;;;;;9.00;6.10;;;;;;;-143.21;70.31;71931.38;4991881;28;20194;-83
2023/05/25 09:11:40;;;;;;;11.38;6.03;;;;;;;-143.21;70.82;71935.34;4992378;28;20208;-85
2023/05/25 09:14:07;;;;;;;8.05;4.88;;;;;;;-143.21;69.52;71941.31;4994404;28;20196;-83
2023/05/25 09:16:37;;;;;;;9.15;4.82;;;;;;;-143.21;68.74;71945.28;4998249;28;20208;-83
2023/05/25 09:19:04;;;;;;;6.40;4.82;;;;;;;-143.21;69.56;71953.19;4991536;28;20252;-86
2023/05/25 09:21:30;;;;;;;11.65;6.55;;;;;;;-143.21;71.61;71955.19;4990549;28;20200;-85
2023/05/25 09:24:00;;;;;;;9.90;5.72;;;;;;;-143.21;72.60;71949.25;4994207;28;20205;-84
2023/05/25 09:26:27;;;;;;;11.73;6.43;;;;;;;-143.21;73.36;71949.25;4995739;28;20207;-84
2023/05/25 09:28:54;;;;;;;12.48;6.93;;;;;;;-143.21;75.17;71941.31;4990937;28;20208;-83
2023/05/25 09:31:23;;;;;;;13.27;6.55;;;;;;;-143.21;76.23;71931.38;4990826;28;20200;-84
2023/05/25 09:33:54;;;;;;;10.27;6.50;;;;;;;-143.21;75.52;71931.38;4985345;28;20235;-84
2023/05/25 09:36:21;;;;;;;11.85;6.38;;;;;;;-143.21;76.88;71929.41;4986946;28;20211;-84
2023/05/25 09:38:49;;;;;;;11.68;6.68;;;;;;;-143.21;78.96;71917.50;4987089;28;20297;-85
2023/05/25 09:41:20;;;;;;;9.52;6.05;;;;;;;-143.21;76.48;71917.50;4996788;28;20228;-82
2023/05/25 09:43:53;;;;;;;7.75;5.40;;;;;;;-143.21;74.25;71929.41;4993416;28;20654;-83
2023/05/25 09:46:20;;;;;;;6.72;5.07;;;;;;;-143.21;73.25;71949.25;4987759;28;20219;-83
2023/05/25 09:48:47;;;;;;;7.05;5.32;;;;;;;-143.21;73.69;71953.19;4991672;28;20200;-81
2023/05/25 09:51:14;;;;;;;7.85;5.38;;;;;;;-143.21;73.91;71941.31;4984897;28;20553;-83
2023/05/25 09:53:41;;;;;;;7.45;5.55;;;;;;;-143.21;75.04;71939.31;4991104;28;20220;-82
2023/05/25 09:56:08;;;;;;;8.25;6.00;;;;;;;-143.21;74.15;71937.34;4991166;28;20205;-83
2023/05/25 09:58:36;;;;;;;8.88;6.75;;;;;;;-143.21;75.19;71941.31;4989658;28;20655;-82
2023/05/25 10:01:04;;;;;;;10.60;8.05;;;;;;;-143.21;77.27;71923.47;4993394;28;20207;-83
2023/05/25 10:03:31;;;;;;;14.75;9.55;;;;;;;-143.21;78.91;71903.63;4992536;28;20305;-84
2023/05/25 10:05:58;;;;;;;15.18;8.80;;;;;;;-143.21;81.08;71879.84;4990590;28;20672;-83
2023/05/25 10:08:26;;;;;;;13.38;8.60;;;;;;;-143.21;82.15;71873.88;4995049;28;20213;-84
2023/05/25 10:10:53;;;;;;;8.40;6.55;;;;;;;-143.21;80.83;71858.03;4996530;28;20206;-84
2023/05/25 10:13:22;;;;;;;10.43;7.53;;;;;;;-143.21;80.06;71834.22;4977063;28;20207;-86
2023/05/25 10:15:53;;;;;;;8.85;7.20;;;;;;;-143.21;75.02;71816.38;4990792;28;20243;-84
2023/05/25 10:18:24;;;;;;;8.50;5.57;;;;;;;-143.21;70.11;71808.44;4986116;28;20588;-83
2023/05/25 10:20:56;;;;;;;9.85;6.20;;;;;;;-143.21;71.18;71786.63;4993880;28;20190;-84
2023/05/25 10:23:24;;;;;;;8.98;6.40;;;;;;;-143.21;73.97;71766.81;4994175;28;20219;-85
2023/05/25 10:25:57;;;;;;;9.15;6.47;;;;;;;-143.21;72.62;71762.84;4993647;28;20208;-85
2023/05/25 10:28:30;;;;;;;7.20;5.50;;;;;;;-143.21;70.61;71745.00;4993491;28;20204;-86
2023/05/25 10:31:00;;;;;;;7.00;6.05;;;;;;;-143.21;71.27;71731.13;4983147;28;20200;-83
2023/05/25 10:33:28;;;;;;;8.45;6.07;;;;;;;-143.21;70.51;71715.25;4974054;28;20327;-82
2023/05/25 10:35:55;;;;;;;7.53;6.35;;;;;;;-143.21;69.34;71715.25;4989013;28;20228;-83
2023/05/25 10:38:27;;;;;;;8.05;6.22;;;;;;;-143.21;71.29;71701.38;4991636;28;20582;-83
2023/05/25 10:40:57;;;;;;;8.63;6.20;;;;;;;-143.21;71.31;71693.44;4976253;28;20200;-84
2023/05/25 10:43:24;;;;;;;8.65;6.05;;;;;;;-143.21;69.85;71685.50;4973510;28;20232;-83
2023/05/25 10:45:51;;;;;;;6.65;5.57;;;;;;;-143.21;68.23;71701.38;4974029;28;20205;-83
2023/05/25 10:48:19;;;;;;;7.78;5.70;;;;;;;-143.21;66.56;71695.44;4974360;28;20204;-83
2023/05/25 10:50:50;;;;;;;5.55;4.88;;;;;;;-143.21;65.90;71691.47;4978571;28;20302;-83
2023/05/25 10:53:21;;;;;;;7.25;5.63;;;;;;;-143.21;65.39;71681.56;4992318;28;20208;-82
2023/05/25 10:56:02;;;;;;;9.25;6.22;;;;;;;-143.21;66.32;71683.53;4988520;28;20673;-84
2023/05/25 10:58:30;;;;;;;9.50;6.53;;;;;;;-143.21;67.35;71681.56;4993045;28;20577;-83
2023/05/25 11:00:58;;;;;;;10.55;6.47;;;;;;;-143.21;65.93;71681.56;4992677;28;20204;-83
2023/05/25 11:03:57;;;;;;;11.38;5.82;;;;;;;-143.21;65.12;71685.50;4992544;28;20311;-85
2023/05/25 11:07:02;;;;;;;10.50;5.90;;;;;;;-143.21;64.91;71677.59;4991668;28;20243;-84
2023/05/25 11:09:32;;;;;;;7.40;6.20;;;;;;;-143.21;65.84;71657.75;4989506;28;20219;-83
2023/05/25 11:12:05;;;;;;;8.15;6.45;;;;;;;-143.21;65.69;71657.75;4977497;28;20213;-83
2023/05/25 11:14:35;;;;;;;8.70;6.50;;;;;;;-143.21;65.93;71643.88;4981098;28;20236;-83
2023/05/25 11:17:09;;;;;;;9.52;7.05;;;;;;;-143.21;66.44;71633.97;4990323;28;20220;-84
2023/05/25 11:19:49;;;;;;;12.07;7.63;;;;;;;-143.21;69.65;71620.09;4992164;28;20250;-86
2023/05/25 11:22:17;;;;;;;8.00;5.80;;;;;;;-143.21;69.34;71624.06;4980235;28;20193;-84
2023/05/25 11:24:45;;;;;;;8.55;5.72;;;;;;;-143.21;68.32;71620.09;4979087;28;20311;-81
2023/05/25 11:27:12;;;;;;;7.68;5.18;;;;;;;-143.21;68.25;71612.16;4955159;28;20220;-86
2023/05/25 11:29:40;;;;;;;8.98;5.15;;;;;;;-143.21;67.45;71606.22;4977581;28;20216;-85
2023/05/25 11:32:14;;;;;;;6.78;4.72;;;;;;;-143.21;67.81;71600.25;4991972;28;20200;-85
2023/05/25 11:34:45;;;;;;;7.78;4.90;;;;;;;-143.21;67.79;71596.28;4986328;28;20209;-84
2023/05/25 11:37:19;;;;;;;5.55;4.72;;;;;;;-143.21;67.92;71586.38;4972424;28;20205;-83
2023/05/25 11:39:48;;;;;;;4.80;4.28;;;;;;;-143.21;68.07;71590.34;4985019;28;20196;-85
2023/05/25 11:42:15;;;;;;;6.72;4.63;;;;;;;-143.21;67.07;71598.28;4972216;28;20231;-86
2023/05/25 11:44:42;;;;;;;5.65;4.75;;;;;;;-143.21;67.20;71590.34;4987432;28;20213;-86
2023/05/25 11:47:13;;;;;;;9.27;4.72;;;;;;;-143.21;67.00;71594.31;4987969;28;20207;-86
2023/05/25 11:49:43;;;;;;;8.63;5.03;;;;;;;-143.21;67.45;71596.28;4991618;28;20631;-86
2023/05/25 11:52:10;;;;;;;9.43;5.50;;;;;;;-143.21;68.00;71602.25;4994720;28;20196;-84
2023/05/25 11:54:40;;;;;;;9.80;6.07;;;;;;;-143.21;68.50;71598.28;4980894;28;20225;-83
2023/05/25 11:57:14;;;;;;;9.68;6.30;;;;;;;-143.21;69.07;71596.28;4977193;28;20299;-83
2023/05/25 11:59:48;;;;;;;8.55;5.63;;;;;;;-143.21;67.59;71576.47;4976096;28;20193;-82
2023/05/25 12:02:15;;;;;;;10.57;6.00;;;;;;;-143.21;66.86;71548.72;4976991;28;20244;-87
2023/05/25 12:04:53;;;;;;;11.45;5.40;;;;;;;-143.21;65.05;71518.97;4975418;28;20664;-82
2023/05/25 12:07:20;;;;;;;7.22;5.05;;;;;;;-143.21;64.45;71501.13;4989916;28;20220;-84
2023/05/25 12:09:49;;;;;;;9.13;4.78;;;;;;;-143.21;64.18;71481.28;4974872;28;20216;-82
2023/05/25 12:12:16;;;;;;;7.25;4.55;;;;;;;-143.21;60.99;71463.44;4984676;28;20728;-82
2023/05/25 12:14:47;;;;;;;6.07;4.75;;;;;;;-143.21;60.23;71439.66;4991042;28;20192;-83
2023/05/25 12:17:15;;;;;;;10.52;5.22;;;;;;;-143.21;60.26;71419.84;4986186;28;20196;-84
2023/05/25 12:19:42;;;;;;;8.07;5.53;;;;;;;-143.21;59.41;71380.19;4984788;28;20655;-85
2023/05/25 12:22:09;;;;;;;7.95;4.75;;;;;;;-143.21;58.80;71336.56;4987356;28;20201;-83
2023/05/25 12:24:36;;;;;;;6.07;5.03;;;;;;;-143.21;58.91;71294.94;4991251;28;20239;-85
2023/05/25 12:27:05;;;;;;;8.18;4.30;;;;;;;-143.21;57.56;71267.19;4975450;28;20231;-85
2023/05/25 12:29:32;;;;;;;9.20;4.20;;;;;;;-143.21;56.47;71231.50;4994892;28;20713;-84
2023/05/25 12:32:02;;;;;;;7.25;3.80;;;;;;;-143.21;55.79;71183.91;4994005;28;20196;-85
2023/05/25 12:34:30;;;;;;;3.95;3.55;;;;;;;-143.21;52.59;71164.09;4981024;28;20259;-85
2023/05/25 12:36:57;;;;;;;4.80;2.83;;;;;;;-143.21;50.25;71144.25;4988705;28;20193;-87
2023/05/25 12:39:37;;;;;;;4.32;3.33;;;;;;;-143.21;50.37;71118.50;4986697;28;20212;-86
2023/05/25 12:42:14;;;;;;;8.63;3.20;;;;;;;-143.21;50.50;71102.63;4985396;28;20214;-86
2023/05/25 12:44:41;;;;;;;5.18;3.60;;;;;;;-143.21;49.21;71086.75;4988973;28;20216;-86
2023/05/25 12:47:14;;;;;;;6.00;3.33;;;;;;;-143.21;48.58;71074.88;4986510;28;20227;-87
2023/05/25 12:49:42;;;;;;;4.93;3.40;;;;;;;-143.21;46.79;71051.09;4985383;28;20250;-87
2023/05/25 12:52:10;;;;;;;4.93;3.10;;;;;;;-143.21;47.40;71025.31;4988255;28;20203;-90
2023/05/25 12:54:39;;;;;;;6.15;3.35;;;;;;;-143.21;45.76;70987.66;4990442;28;20196;-85
2023/05/25 12:57:09;;;;;;;6.18;3.30;;;;;;;-143.21;45.77;70963.84;4986443;28;20208;-87
2023/05/25 12:59:37;;;;;;;5.93;2.65;;;;;;;-143.21;44.69;70948.00;4992212;28;20203;-87
2023/05/25 13:02:06;;;;;;;5.88;2.90;;;;;;;-143.21;44.58;70936.09;4993261;28;20248;-85
2023/05/25 13:04:33;;;;;;;4.28;2.60;;;;;;;-143.21;44.16;70916.28;4988743;28;20275;-88
2023/05/25 13:07:00;;;;;;;6.25;2.70;;;;;;;-143.21;43.66;70894.47;4990426;28;20204;-86
2023/05/25 13:09:32;;;;;;;13.50;2.80;;;;;;;-143.21;41.69;70884.56;4990490;28;20211;-84
2023/05/25 13:11:59;;;;;;;3.22;2.55;;;;;;;-143.21;40.56;70886.53;4983934;28;20252;-84
2023/05/25 13:14:28;;;;;;;4.05;2.83;;;;;;;-143.21;40.41;70874.66;4979454;28;20207;-86
2023/05/25 13:16:56;;;;;;;3.22;2.80;;;;;;;-143.21;41.23;70876.63;4979290;28;20193;-86
2023/05/25 13:19:24;;;;;;;5.57;2.88;;;;;;;-143.21;41.52;70872.66;4988640;28;20205;-85
2023/05/25 13:21:51;;;;;;;6.00;2.88;;;;;;;-143.21;41.65;70874.66;4986905;28;20196;-87
2023/05/25 13:24:19;;;;;;;7.97;2.50;;;;;;;-143.21;40.12;70866.72;4993204;28;20359;-85
2023/05/25 13:26:46;;;;;;;6.00;3.05;;;;;;;-143.21;39.60;70866.72;4987701;28;20196;-87
2023/05/25 13:29:13;;;;;;;6.53;2.97;;;;;;;-143.21;38.89;70858.78;4977431;28;20668;-87
2023/05/25 13:31:43;;;;;;;6.57;2.90;;;;;;;-143.21;38.65;70860.78;4981959;28;20217;-86
2023/05/25 13:34:09;;;;;;;4.85;2.60;;;;;;;-143.21;37.58;70854.84;4982197;28;20633;-86
2023/05/25 13:36:39;;;;;;;4.63;2.83;;;;;;;-143.21;39.47;70838.97;4993003;28;20211;-88
2023/05/25 13:39:06;;;;;;;4.40;2.65;;;;;;;-143.21;40.33;70807.25;4983702;28;20212;-88
2023/05/25 13:41:33;;;;;;;4.18;2.97;;;;;;;-143.21;38.74;70797.34;4992688;28;20200;-87
2023/05/25 13:44:00;;;;;;;4.15;2.88;;;;;;;-143.21;38.43;70811.22;4989200;28;20221;-84
2023/05/25 13:46:26;;;;;;;10.52;2.85;;;;;;;-143.21;38.50;70813.19;4985965;28;20207;-85
2023/05/25 13:48:55;;;;;;;7.47;2.70;;;;;;;-143.21;38.44;70801.31;4985313;28;20266;-83
2023/05/25 13:51:21;;;;;;;3.83;2.55;;;;;;;-143.21;39.22;70783.47;4988567;28;20207;-86
2023/05/25 13:53:48;;;;;;;4.45;2.53;;;;;;;-143.21;38.01;70763.66;4986085;28;20694;-82
2023/05/25 13:56:15;;;;;;;3.50;2.90;;;;;;;-143.21;35.90;70749.78;4983653;28;20188;-83
2023/05/25 13:58:43;;;;;;;4.45;2.63;;;;;;;-143.21;36.84;70749.78;4989942;28;20267;-81
2023/05/25 14:01:10;;;;;;;4.07;2.67;;;;;;;-143.21;36.33;70737.88;4991799;28;20204;-83
2023/05/25 14:03:37;;;;;;;2.85;2.50;;;;;;;-143.21;36.33;70743.81;4982208;28;20311;-81
2023/05/25 14:06:06;;;;;;;3.55;2.35;;;;;;;-143.21;35.82;70749.78;4976260;28;20638;-82
2023/05/25 14:08:33;;;;;;;3.15;2.42;;;;;;;-143.21;35.71;70751.75;4980557;28;20188;-82
2023/05/25 14:11:00;;;;;;;4.95;2.90;;;;;;;-143.21;35.13;70745.81;4990829;28;20232;-81
2023/05/25 14:13:26;;;;;;;6.28;2.65;;;;;;;-143.21;36.29;70725.97;4990661;28;20227;-80
2023/05/25 14:15:53;;;;;;;4.60;2.70;;;;;;;-143.21;34.58;70718.06;4990990;28;20230;-81
2023/05/25 14:18:20;;;;;;;3.08;2.60;;;;;;;-143.21;35.00;70737.88;4983464;28;20283;-81
2023/05/25 14:20:47;;;;;;;4.47;2.83;;;;;;;-143.21;34.79;70749.78;4989873;28;20620;-82
2023/05/25 14:23:17;;;;;;;3.45;2.55;;;;;;;-143.21;34.45;70741.84;4991508;28;20219;-82
2023/05/25 14:25:44;;;;;;;4.63;2.70;;;;;;;-143.21;35.40;70718.06;4986478;28;20204;-81
2023/05/25 14:28:11;;;;;;;3.25;2.60;;;;;;;-143.21;35.05;70718.06;4988386;28;20192;-82
2023/05/25 14:30:38;;;;;;;6.15;2.97;;;;;;;-143.21;34.29;70724.00;4992406;28;20196;-81
2023/05/25 14:33:05;;;;;;;3.92;2.40;;;;;;;-143.21;33.93;70727.97;4985479;28;20290;-81
2023/05/25 14:35:32;;;;;;;3.22;2.50;;;;;;;-143.21;34.60;70731.94;4984542;28;20207;-81
2023/05/25 14:37:58;;;;;;;3.17;2.58;;;;;;;-143.21;35.53;70706.16;4989546;28;20208;-81
2023/05/25 14:40:26;;;;;;;5.72;2.83;;;;;;;-143.21;35.16;70692.28;4987407;28;20319;-82
2023/05/25 14:42:54;;;;;;;5.03;2.70;;;;;;;-143.21;34.71;70676.44;4982325;28;20196;-79
2023/05/25 14:45:21;;;;;;;4.47;2.55;;;;;;;-143.21;34.31;70666.50;4983322;28;20306;-79
2023/05/25 14:47:48;;;;;;;6.18;2.90;;;;;;;-143.21;33.98;70650.66;4985289;28;20578;-78
2023/05/25 14:50:15;;;;;;;3.08;2.70;;;;;;;-143.21;33.97;70658.59;4981988;28;20576;-79
2023/05/25 14:52:42;;;;;;;3.53;2.78;;;;;;;-143.21;34.76;70646.69;4984004;28;20200;-79
2023/05/25 14:55:09;;;;;;;3.92;3.15;;;;;;;-143.21;35.06;70644.72;4980493;28;20250;-79
2023/05/25 14:57:37;;;;;;;4.13;3.30;;;;;;;-143.21;34.98;70648.69;4981695;28;20189;-80
2023/05/25 15:00:05;;;;;;;5.00;3.15;;;;;;;-143.21;34.49;70654.63;4984157;28;20200;-79
2023/05/25 15:02:31;;;;;;;4.70;3.03;;;;;;;-143.21;33.85;70666.50;4986369;28;20195;-80
2023/05/25 15:04:58;;;;;;;3.88;3.08;;;;;;;-143.21;34.19;70690.31;4985101;28;20212;-79
2023/05/25 15:07:25;;;;;;;4.97;3.40;;;;;;;-143.21;35.81;70678.41;4982169;28;20196;-80
2023/05/25 15:09:52;;;;;;;4.18;3.20;;;;;;;-143.21;35.19;70670.47;4982574;28;20199;-81
2023/05/25 15:12:19;;;;;;;4.13;2.88;;;;;;;-143.21;35.15;70658.59;4988357;28;20211;-81
2023/05/25 15:14:47;;;;;;;5.55;3.05;;;;;;;-143.21;35.18;70662.56;4977876;28;20193;-80
2023/05/25 15:17:14;;;;;;;4.88;3.05;;;;;;;-143.21;35.08;70678.41;4980603;28;20279;-81
2023/05/25 15:19:40;;;;;;;5.47;3.03;;;;;;;-143.21;34.95;70680.38;4980222;28;20208;-80
2023/05/25 15:22:07;;;;;;;4.45;3.47;;;;;;;-143.21;35.46;70692.28;4983346;28;20204;-80
2023/05/25 15:24:34;;;;;;;5.78;3.05;;;;;;;-143.21;35.76;70686.34;4976918;28;20287;-81
2023/05/25 15:27:03;;;;;;;4.03;2.80;;;;;;;-143.21;35.24;70708.16;4988922;28;20200;-81
2023/05/25 15:29:30;;;;;;;5.00;3.38;;;;;;;-143.21;35.13;70729.94;4990695;28;20248;-82
2023/05/25 15:31:58;;;;;;;6.82;3.35;;;;;;;-143.21;35.63;70747.78;4978914;28;20211;-82
2023/05/25 15:34:25;;;;;;;4.32;3.00;;;;;;;-143.21;35.01;70749.78;4987170;28;20196;-82
2023/05/25 15:36:52;;;;;;;4.82;3.05;;;;;;;-143.21;35.77;70755.72;4985781;28;20251;-81
2023/05/25 15:39:19;;;;;;;4.93;3.20;;;;;;;-143.21;35.98;70749.78;4986434;28;20328;-81
2023/05/25 15:41:46;;;;;;;10.27;3.67;;;;;;;-143.21;36.63;70729.94;4989590;28;20189;-80
2023/05/25 15:44:12;;;;;;;9.73;3.60;;;;;;;-143.21;38.21;70737.88;4988491;28;20231;-82
2023/05/25 15:46:39;;;;;;;6.93;3.45;;;;;;;-143.21;40.66;70761.66;4989128;28;20200;-81
2023/05/25 15:49:10;;;;;;;6.18;3.58;;;;;;;-143.21;42.06;70807.25;4990823;28;20280;-81
2023/05/25 15:51:40;;;;;;;6.63;3.70;;;;;;;-143.21;44.30;70878.63;4983265;28;20213;-80
2023/05/25 15:54:07;;;;;;;6.82;3.95;;;;;;;-143.21;45.11;70898.44;4991821;28;20193;-81
2023/05/25 15:56:34;;;;;;;4.05;3.65;;;;;;;-143.21;45.55;70920.25;4989396;28;20223;-80
2023/05/25 15:59:02;;;;;;;9.45;4.03;;;;;;;-143.21;48.18;70951.97;4985816;28;20207;-81
2023/05/25 16:01:30;;;;;;;11.73;4.82;;;;;;;-143.21;51.09;70973.78;4988782;28;20203;-80
2023/05/25 16:03:57;;;;;;;6.57;4.32;;;;;;;-143.21;52.09;71021.34;4985945;28;20347;-81
2023/05/25 16:06:25;;;;;;;5.97;4.03;;;;;;;-143.21;52.53;71061.00;4983286;28;20201;-81
2023/05/25 16:08:52;;;;;;;7.10;4.20;;;;;;;-143.21;53.77;71118.50;4982404;28;20189;-81
2023/05/25 16:11:19;;;;;;;5.95;4.10;;;;;;;-143.21;56.74;71148.22;4980762;28;20201;-81
2023/05/25 16:13:47;;;;;;;12.75;4.93;;;;;;;-143.21;57.27;71185.88;4984572;28;20711;-81
2023/05/25 16:16:14;;;;;;;6.57;4.30;;;;;;;-143.21;58.06;71223.56;4984836;28;20703;-79
2023/05/25 16:18:41;;;;;;;12.95;4.82;;;;;;;-143.21;59.21;71257.25;4986141;28;20259;-80
2023/05/25 16:21:08;;;;;;;15.95;5.65;;;;;;;-143.21;61.18;71294.94;4979214;28;20197;-80
2023/05/25 16:23:36;;;;;;;15.70;6.20;;;;;;;-143.21;64.18;71324.66;4989233;28;20204;-81
2023/05/25 16:26:04;;;;;;;13.57;5.90;;;;;;;-143.21;66.14;71350.44;4978412;28;20201;-80
2023/05/25 16:28:31;;;;;;;8.48;4.78;;;;;;;-143.21;65.38;71366.31;4984172;28;20204;-80
2023/05/25 16:30:58;;;;;;;7.90;5.20;;;;;;;-143.21;65.82;71388.09;4982687;28;20193;-80
2023/05/25 16:33:25;;;;;;;7.82;5.07;;;;;;;-143.21;67.66;71398.03;4984207;28;20664;-80
2023/05/25 16:35:52;;;;;;;5.90;5.28;;;;;;;-143.21;67.92;71421.81;4986791;28;20205;-80
2023/05/25 16:38:19;;;;;;;8.50;5.25;;;;;;;-143.21;65.02;71451.56;4983224;28;20200;-81
2023/05/25 16:40:47;;;;;;;10.43;5.53;;;;;;;-143.21;67.83;71469.41;4978761;28;20189;-81
2023/05/25 16:43:14;;;;;;;11.35;5.85;;;;;;;-143.21;69.76;71479.31;4981412;28;20197;-81
2023/05/25 16:45:41;;;;;;;10.75;6.47;;;;;;;-143.21;70.33;71499.13;4980446;28;20220;-78
2023/05/25 16:48:08;;;;;;;13.77;6.53;;;;;;;-143.21;72.26;71509.06;4983878;28;20207;-78
2023/05/25 16:50:34;;;;;;;16.40;6.45;;;;;;;-143.21;73.17;71532.84;4990456;28;20564;-77
2023/05/25 16:53:02;;;;;;;8.73;5.20;;;;;;;-143.21;73.98;71550.69;4982294;28;20208;-78
2023/05/25 16:55:28;;;;;;;19.85;6.72;;;;;;;-143.21;75.80;71564.56;4982660;28;20184;-77
2023/05/25 16:57:57;;;;;;;13.82;5.72;;;;;;;-143.21;74.76;71596.28;4981241;28;20625;-78
2023/05/25 17:00:24;;;;;;;9.43;6.10;;;;;;;-143.21;73.98;71628.00;4984261;28;20651;-79
2023/05/25 17:02:53;;;;;;;13.05;5.38;;;;;;;-143.21;73.43;71626.03;4985172;28;20287;-78
2023/05/25 17:05:20;;;;;;;11.55;6.68;;;;;;;-143.21;76.35;71639.91;4984289;28;20220;-80
2023/05/25 17:07:48;;;;;;;13.85;6.22;;;;;;;-143.21;76.34;71643.88;4984171;28;20196;-79
2023/05/25 17:10:21;;;;;;;10.68;6.25;;;;;;;-143.21;76.73;71657.75;4982291;28;20204;-78
2023/05/25 17:12:54;;;;;;;8.82;6.55;;;;;;;-143.21;76.38;71661.72;4983494;28;20194;-77
2023/05/25 17:15:22;;;;;;;10.32;7.30;;;;;;;-143.21;77.48;71657.75;4986663;28;20586;-79
2023/05/25 17:17:49;;;;;;;10.30;6.70;;;;;;;-143.21;76.87;71659.75;4982484;28;20212;-77
2023/05/25 17:20:19;;;;;;;13.43;7.65;;;;;;;-143.21;77.13;71659.75;4983336;28;20656;-79
2023/05/25 17:22:50;;;;;;;17.63;7.90;;;;;;;-143.21;79.76;71655.78;4986001;28;20201;-79
2023/05/25 17:25:25;;;;;;;13.13;8.38;;;;;;;-143.21;79.38;71657.75;4981399;28;20633;-78
2023/05/25 17:28:03;;;;;;;16.45;7.88;;;;;;;-143.21;79.63;71681.56;4983959;28;20188;-78
2023/05/25 17:30:38;;;;;;;11.75;7.25;;;;;;;-143.21;80.61;71701.38;4983443;28;20593;-78
2023/05/25 17:33:05;;;;;;;13.50;7.65;;;;;;;-143.21;81.68;71715.25;4981196;28;20826;-80
2023/05/25 17:35:34;;;;;;;11.38;7.60;;;;;;;-143.21;82.52;71731.13;4982233;28;20199;-79
2023/05/25 17:38:07;;;;;;;13.32;7.88;;;;;;;-143.21;83.07;71735.09;4983610;28;20251;-79
2023/05/25 17:40:34;;;;;;;16.10;8.25;;;;;;;-143.21;83.98;71748.97;4982749;28;20203;-78
2023/05/25 17:43:02;;;;;;;11.68;8.27;;;;;;;-143.21;85.44;71756.91;4985709;28;20258;-79
2023/05/25 17:45:29;;;;;;;11.45;7.57;;;;;;;-143.21;86.25;71764.81;4983400;28;20228;-78
2023/05/25 17:47:57;;;;;;;13.50;8.05;;;;;;;-143.21;86.64;71762.84;4982458;28;20196;-79
2023/05/25 17:50:27;;;;;;;13.68;8.15;;;;;;;-143.21;86.62;71764.81;4980675;28;20668;-84
2023/05/25 17:53:03;;;;;;;12.65;8.68;;;;;;;-143.21;86.96;71764.81;4982419;28;20204;-79
2023/05/25 17:55:33;;;;;;;16.10;9.15;;;;;;;-143.21;88.24;71754.91;4987348;28;20679;-78
2023/05/25 17:58:46;;;;;;;12.95;9.05;;;;;;;-143.21;89.82;71748.97;4979786;28;20766;-78
2023/05/25 18:01:13;;;;;;;18.90;10.00;;;;;;;-143.21;90.46;71750.94;4936422;28;20259;-80
2023/05/25 18:03:41;;;;;;;13.50;9.07;;;;;;;-143.21;90.66;71754.91;4981326;28;20228;-79
2023/05/25 18:06:08;;;;;;;15.05;9.48;;;;;;;-143.21;90.79;71756.91;4979308;28;20221;-79
2023/05/25 18:08:35;;;;;;;16.15;8.93;;;;;;;-143.21;90.89;71764.81;4982581;28;20200;-78
2023/05/25 18:11:02;;;;;;;11.55;8.90;;;;;;;-143.21;90.25;71766.81;4983212;28;20681;-79
2023/05/25 18:13:33;;;;;;;13.88;8.60;;;;;;;-143.21;91.00;71776.72;4986880;28;20292;-80
2023/05/25 18:16:00;;;;;;;10.95;7.57;;;;;;;-143.21;89.08;71790.59;4983603;28;20569;-80
2023/05/25 18:18:26;;;;;;;12.23;7.13;;;;;;;-143.21;88.18;71800.53;4982475;28;20195;-80
2023/05/25 18:20:55;;;;;;;13.15;7.13;;;;;;;-143.21;87.63;71812.41;4986410;28;20651;-78
2023/05/25 18:23:22;;;;;;;10.05;6.68;;;;;;;-143.21;87.53;71818.38;4984573;28;20208;-79
2023/05/25 18:25:49;;;;;;;9.77;6.30;;;;;;;-143.21;86.64;71832.25;4979964;28;20303;-79
2023/05/25 18:28:20;;;;;;;10.90;5.93;;;;;;;-143.21;86.39;71834.22;4980336;28;20196;-79
2023/05/25 18:30:53;;;;;;;9.80;5.85;;;;;;;-143.21;86.20;71844.16;4983277;28;20193;-80
2023/05/25 18:33:34;;;;;;;7.25;5.35;;;;;;;-143.21;86.19;71860.00;4980205;28;20224;-79
2023/05/25 18:36:02;;;;;;;8.25;5.90;;;;;;;-143.21;86.22;71852.06;4979829;28;20197;-80
2023/05/25 18:38:29;;;;;;;9.85;5.95;;;;;;;-143.21;84.93;71858.03;4982348;28;20201;-80
2023/05/25 18:40:56;;;;;;;10.02;6.65;;;;;;;-143.21;85.07;71871.91;4982370;28;20188;-80
2023/05/25 18:43:23;;;;;;;8.82;5.70;;;;;;;-143.21;86.35;71873.88;4982192;28;20204;-81
2023/05/25 18:45:50;;;;;;;8.20;5.70;;;;;;;-143.21;86.41;71879.84;4984539;28;20243;-79
2023/05/25 18:48:17;;;;;;;9.60;6.22;;;;;;;-143.21;86.55;71887.78;4981272;28;20686;-77
2023/05/25 18:50:44;;;;;;;6.50;5.57;;;;;;;-143.21;87.18;71893.72;4986007;28;20208;-78
2023/05/25 18:53:12;;;;;;;7.75;5.43;;;;;;;-143.21;86.09;71907.59;4985444;28;20207;-77
2023/05/25 18:55:39;;;;;;;8.48;5.75;;;;;;;-143.21;85.83;71923.47;4982308;28;20211;-78
2023/05/25 18:58:06;;;;;;;7.85;5.57;;;;;;;-143.21;85.91;71941.31;4982863;28;20189;-78
2023/05/25 19:00:33;;;;;;;10.23;5.35;;;;;;;-143.21;85.70;71945.28;4983025;28;20207;-77
2023/05/25 19:03:00;;;;;;;9.70;5.68;;;;;;;-143.21;85.28;71959.16;4981256;28;20660;-77
2023/05/25 19:05:27;;;;;;;7.97;5.50;;;;;;;-143.21;85.35;71967.09;4987697;28;20227;-78
2023/05/25 19:07:53;;;;;;;8.88;5.18;;;;;;;-143.21;84.48;71977.00;4985662;28;20204;-76
2023/05/25 19:10:21;;;;;;;6.50;4.93;;;;;;;-143.21;84.56;71982.94;4984104;28;20247;-80
2023/05/25 19:12:48;;;;;;;6.10;4.90;;;;;;;-143.21;84.53;71992.88;4987901;28;20200;-77
2023/05/25 19:15:15;;;;;;;6.70;5.30;;;;;;;-143.21;84.57;72010.72;4985994;28;20195;-78
2023/05/25 19:17:42;;;;;;;8.88;5.15;;;;;;;-143.21;83.82;72012.69;4986825;28;20661;-76
2023/05/25 19:20:09;;;;;;;6.93;4.88;;;;;;;-143.21;83.29;72016.66;4984820;28;20192;-79
2023/05/25 19:22:38;;;;;;;7.75;5.20;;;;;;;-143.21;83.97;72042.44;4987886;28;20634;-79
2023/05/25 19:25:05;;;;;;;9.30;5.47;;;;;;;-143.21;84.70;72050.38;4985354;28;20258;-80
2023/05/25 19:27:34;;;;;;;8.07;5.37;;;;;;;-143.21;84.39;72062.25;4984274;28;20747;-79
2023/05/25 19:30:00;;;;;;;9.50;5.70;;;;;;;-143.21;84.38;72070.19;4983417;28;20672;-78
2023/05/25 19:32:27;;;;;;;8.25;5.38;;;;;;;-143.21;84.98;72076.16;4986151;28;20232;-78
2023/05/25 19:34:54;;;;;;;7.17;5.70;;;;;;;-143.21;85.61;72082.09;4987796;28;20196;-78
2023/05/25 19:37:21;;;;;;;9.60;5.57;;;;;;;-143.21;85.78;72082.09;4984910;28;20235;-80
2023/05/25 19:39:48;;;;;;;6.93;5.13;;;;;;;-143.21;86.14;72084.06;4985662;28;20196;-79
2023/05/25 19:42:15;;;;;;;11.43;4.90;;;;;;;-143.21;86.78;72086.06;4988785;28;20667;-77
2023/05/25 19:44:44;;;;;;;7.77;5.27;;;;;;;-143.21;86.83;72092.00;4984534;28;20207;-76
2023/05/25 19:47:10;;;;;;;8.20;5.33;;;;;;;-143.21;86.91;72092.00;4984297;28;20818;-78
2023/05/25 19:49:37;;;;;;;6.17;4.67;;;;;;;-143.21;86.92;72086.06;4984565;28;20208;-77
2023/05/25 19:52:04;;;;;;;5.53;4.80;;;;;;;-143.21;86.08;72082.09;4987201;28;20211;-76
2023/05/25 19:54:31;;;;;;;8.85;5.30;;;;;;;-143.21;86.09;72086.06;4984207;28;20203;-78
2023/05/25 19:56:58;;;;;;;6.17;5.30;;;;;;;-143.21;86.22;72086.06;4984777;28;20189;-77